sensor_id;sensor_type;location;lat;lon;timestamp;pressure;altitude;pressure_sealevel;temperature;humidity
36664;BME280;53333;51.976;20.144;2023-06-22T00:00:22;100229.16;;;22.64;57.94
36664;BME280;53333;51.976;20.144;2023-06-22T00:02:54;100224.72;;;22.63;58.14
36664;BME280;53333;51.976;20.144;2023-06-22T00:05:28;100231.00;;;22.64;58.07
36664;BME280;53333;51.976;20.144;2023-06-22T00:08:02;100230.16;;;22.63;58.38
36664;BME280;53333;51.976;20.144;2023-06-22T00:10:35;100224.72;;;22.63;58.20
36664;BME280;53333;51.976;20.144;2023-06-22T00:13:08;100223.00;;;22.62;57.97
36664;BME280;53333;51.976;20.144;2023-06-22T00:15:41;100224.19;;;22.60;58.09
36664;BME280;53333;51.976;20.144;2023-06-22T00:18:14;100216.16;;;22.58;58.33
36664;BME280;53333;51.976;20.144;2023-06-22T00:20:48;100223.47;;;22.58;58.20
36664;BME280;53333;51.976;20.144;2023-06-22T00:23:21;100216.31;;;22.57;58.02
36664;BME280;53333;51.976;20.144;2023-06-22T00:25:55;100214.59;;;22.56;58.38
36664;BME280;53333;51.976;20.144;2023-06-22T00:28:27;100225.63;;;22.54;58.38
36664;BME280;53333;51.976;20.144;2023-06-22T00:31:00;100228.50;;;22.53;58.46
36664;BME280;53333;51.976;20.144;2023-06-22T00:33:33;100223.06;;;22.53;58.09
36664;BME280;53333;51.976;20.144;2023-06-22T00:36:11;100228.50;;;22.53;58.03
36664;BME280;53333;51.976;20.144;2023-06-22T00:38:47;100230.22;;;22.54;58.25
36664;BME280;53333;51.976;20.144;2023-06-22T00:41:22;100230.91;;;22.56;58.05
36664;BME280;53333;51.976;20.144;2023-06-22T00:43:54;100231.78;;;22.56;58.14
36664;BME280;53333;51.976;20.144;2023-06-22T00:46:28;100230.06;;;22.55;58.14
36664;BME280;53333;51.976;20.144;2023-06-22T00:49:00;100231.06;;;22.54;57.66
36664;BME280;53333;51.976;20.144;2023-06-22T00:51:37;100235.81;;;22.52;57.98
36664;BME280;53333;51.976;20.144;2023-06-22T00:54:09;100235.97;;;22.51;57.89
36664;BME280;53333;51.976;20.144;2023-06-22T00:56:44;100227.78;;;22.51;58.14
36664;BME280;53333;51.976;20.144;2023-06-22T00:59:17;100232.38;;;22.50;57.84
36664;BME280;53333;51.976;20.144;2023-06-22T01:01:50;100227.94;;;22.49;57.99
36664;BME280;53333;51.976;20.144;2023-06-22T01:04:24;100229.09;;;22.46;58.06
36664;BME280;53333;51.976;20.144;2023-06-22T01:07:01;100228.25;;;22.46;57.85
36664;BME280;53333;51.976;20.144;2023-06-22T01:09:37;100233.00;;;22.44;57.83
36664;BME280;53333;51.976;20.144;2023-06-22T01:12:14;100234.13;;;22.41;58.15
36664;BME280;53333;51.976;20.144;2023-06-22T01:14:49;100235.16;;;22.40;58.09
36664;BME280;53333;51.976;20.144;2023-06-22T01:17:23;100244.31;;;22.39;58.10
36664;BME280;53333;51.976;20.144;2023-06-22T01:19:57;100247.88;;;22.40;58.08
36664;BME280;53333;51.976;20.144;2023-06-22T01:22:33;100250.59;;;22.40;58.04
36664;BME280;53333;51.976;20.144;2023-06-22T01:25:19;100245.16;;;22.40;58.15
36664;BME280;53333;51.976;20.144;2023-06-22T01:27:56;100247.03;;;22.39;57.85
36664;BME280;53333;51.976;20.144;2023-06-22T01:30:33;100245.16;;;22.40;58.03
36664;BME280;53333;51.976;20.144;2023-06-22T01:33:08;100252.47;;;22.39;58.07
36664;BME280;53333;51.976;20.144;2023-06-22T01:35:43;100256.34;;;22.37;57.88
36664;BME280;53333;51.976;20.144;2023-06-22T01:38:16;100259.22;;;22.35;57.72
36664;BME280;53333;51.976;20.144;2023-06-22T01:40:50;100268.69;;;22.31;57.82
36664;BME280;53333;51.976;20.144;2023-06-22T01:43:24;100272.66;;;22.27;57.98
36664;BME280;53333;51.976;20.144;2023-06-22T01:46:01;100270.38;;;22.22;57.96
36664;BME280;53333;51.976;20.144;2023-06-22T01:48:33;100265.38;;;22.18;57.82
36664;BME280;53333;51.976;20.144;2023-06-22T01:51:06;100266.69;;;22.13;58.29
36664;BME280;53333;51.976;20.144;2023-06-22T01:53:39;100266.28;;;22.08;58.41
36664;BME280;53333;51.976;20.144;2023-06-22T01:56:12;100265.84;;;22.03;58.45
36664;BME280;53333;51.976;20.144;2023-06-22T01:58:46;100268.88;;;22.00;58.15
36664;BME280;53333;51.976;20.144;2023-06-22T02:01:23;100273.75;;;21.97;58.58
36664;BME280;53333;51.976;20.144;2023-06-22T02:04:01;100286.78;;;21.93;58.36
36664;BME280;53333;51.976;20.144;2023-06-22T02:06:36;100281.63;;;21.90;57.99
36664;BME280;53333;51.976;20.144;2023-06-22T02:09:11;100284.63;;;21.87;58.49
36664;BME280;53333;51.976;20.144;2023-06-22T02:11:45;100291.22;;;21.84;58.46
36664;BME280;53333;51.976;20.144;2023-06-22T02:14:19;100285.22;;;21.81;58.29
36664;BME280;53333;51.976;20.144;2023-06-22T02:16:53;100286.22;;;21.80;58.29
36664;BME280;53333;51.976;20.144;2023-06-22T02:19:27;100291.81;;;21.78;58.47
36664;BME280;53333;51.976;20.144;2023-06-22T02:22:04;100291.06;;;21.76;58.33
36664;BME280;53333;51.976;20.144;2023-06-22T02:24:37;100290.66;;;21.71;58.51
36664;BME280;53333;51.976;20.144;2023-06-22T02:27:10;100297.09;;;21.70;58.47
36664;BME280;53333;51.976;20.144;2023-06-22T02:29:42;100302.84;;;21.67;58.64
36664;BME280;53333;51.976;20.144;2023-06-22T02:32:16;100301.94;;;21.66;58.27
36664;BME280;53333;51.976;20.144;2023-06-22T02:34:50;100308.56;;;21.64;58.63
36664;BME280;53333;51.976;20.144;2023-06-22T02:37:23;100313.09;;;21.63;58.42
36664;BME280;53333;51.976;20.144;2023-06-22T02:39:56;100313.25;;;21.62;58.42
36664;BME280;53333;51.976;20.144;2023-06-22T02:42:29;100321.41;;;21.62;58.63
36664;BME280;53333;51.976;20.144;2023-06-22T02:45:02;100313.53;;;21.58;58.64
36664;BME280;53333;51.976;20.144;2023-06-22T02:47:36;100318.97;;;21.58;58.66
36664;BME280;53333;51.976;20.144;2023-06-22T02:50:09;100320.13;;;21.56;58.40
36664;BME280;53333;51.976;20.144;2023-06-22T02:52:42;100318.41;;;21.55;58.75
36664;BME280;53333;51.976;20.144;2023-06-22T02:55:15;100327.53;;;21.54;58.75
36664;BME280;53333;51.976;20.144;2023-06-22T02:57:55;100324.81;;;21.54;58.74
36664;BME280;53333;51.976;20.144;2023-06-22T03:00:29;100334.00;;;21.53;58.53
36664;BME280;53333;51.976;20.144;2023-06-22T03:03:04;100331.28;;;21.53;58.40
36664;BME280;53333;51.976;20.144;2023-06-22T03:05:37;100326.84;;;21.52;58.62
36664;BME280;53333;51.976;20.144;2023-06-22T03:08:11;100327.84;;;21.51;58.76
36664;BME280;53333;51.976;20.144;2023-06-22T03:10:44;100337.84;;;21.50;58.48
36664;BME280;53333;51.976;20.144;2023-06-22T03:13:17;100348.72;;;21.50;58.58
36664;BME280;53333;51.976;20.144;2023-06-22T03:15:51;100344.28;;;21.49;58.72
36664;BME280;53333;51.976;20.144;2023-06-22T03:18:25;100356.25;;;21.47;58.48
36664;BME280;53333;51.976;20.144;2023-06-22T03:20:58;100352.69;;;21.46;58.50
36664;BME280;53333;51.976;20.144;2023-06-22T03:23:31;100349.09;;;21.46;58.31
36664;BME280;53333;51.976;20.144;2023-06-22T03:26:04;100358.41;;;21.43;58.60
36664;BME280;53333;51.976;20.144;2023-06-22T03:28:37;100358.41;;;21.43;58.78
36664;BME280;53333;51.976;20.144;2023-06-22T03:31:11;100364.81;;;21.42;58.51
36664;BME280;53333;51.976;20.144;2023-06-22T03:33:46;100363.84;;;21.43;58.49
36664;BME280;53333;51.976;20.144;2023-06-22T03:36:19;100362.81;;;21.44;58.32
36664;BME280;53333;51.976;20.144;2023-06-22T03:38:52;100368.84;;;21.48;58.48
36664;BME280;53333;51.976;20.144;2023-06-22T03:41:25;100365.16;;;21.49;58.11
36664;BME280;53333;51.976;20.144;2023-06-22T03:43:58;100368.59;;;21.51;58.15
36664;BME280;53333;51.976;20.144;2023-06-22T03:46:31;100364.88;;;21.52;58.43
36664;BME280;53333;51.976;20.144;2023-06-22T03:49:06;100375.47;;;21.55;58.35
36664;BME280;53333;51.976;20.144;2023-06-22T03:51:39;100384.19;;;21.58;58.02
36664;BME280;53333;51.976;20.144;2023-06-22T03:54:12;100388.34;;;21.63;57.95
36664;BME280;53333;51.976;20.144;2023-06-22T03:56:44;100388.22;;;21.64;58.31
36664;BME280;53333;51.976;20.144;2023-06-22T03:59:17;100396.09;;;21.67;58.33
36664;BME280;53333;51.976;20.144;2023-06-22T04:01:50;100398.53;;;21.70;58.30
36664;BME280;53333;51.976;20.144;2023-06-22T04:04:24;100395.38;;;21.75;57.87
36664;BME280;53333;51.976;20.144;2023-06-22T04:06:57;100396.78;;;21.79;58.00
36664;BME280;53333;51.976;20.144;2023-06-22T04:09:30;100398.94;;;21.85;57.58
36664;BME280;53333;51.976;20.144;2023-06-22T04:12:03;100396.53;;;21.92;57.88
36664;BME280;53333;51.976;20.144;2023-06-22T04:14:35;100396.97;;;21.97;57.78
36664;BME280;53333;51.976;20.144;2023-06-22T04:17:08;100387.38;;;22.03;57.85
36664;BME280;53333;51.976;20.144;2023-06-22T04:19:42;100390.22;;;22.11;57.84
36664;BME280;53333;51.976;20.144;2023-06-22T04:22:15;100385.06;;;22.18;57.50
36664;BME280;53333;51.976;20.144;2023-06-22T04:24:47;100386.22;;;22.25;57.36
36664;BME280;53333;51.976;20.144;2023-06-22T04:27:24;100387.50;;;22.30;57.38
36664;BME280;53333;51.976;20.144;2023-06-22T04:29:57;100387.81;;;22.37;57.53
36664;BME280;53333;51.976;20.144;2023-06-22T04:32:31;100387.22;;;22.43;57.35
36664;BME280;53333;51.976;20.144;2023-06-22T04:35:06;100395.50;;;22.52;57.20
36664;BME280;53333;51.976;20.144;2023-06-22T04:37:39;100385.03;;;22.57;56.97
36664;BME280;53333;51.976;20.144;2023-06-22T04:40:12;100392.63;;;22.63;57.27
36664;BME280;53333;51.976;20.144;2023-06-22T04:42:45;100389.31;;;22.69;57.13
36664;BME280;53333;51.976;20.144;2023-06-22T04:45:24;100392.16;;;22.77;57.12
36664;BME280;53333;51.976;20.144;2023-06-22T04:47:57;100399.72;;;22.83;56.72
36664;BME280;53333;51.976;20.144;2023-06-22T04:50:31;100408.00;;;22.92;56.59
36664;BME280;53333;51.976;20.144;2023-06-22T04:53:04;100397.38;;;22.98;56.88
36664;BME280;53333;51.976;20.144;2023-06-22T04:55:37;100403.22;;;23.03;56.45
36664;BME280;53333;51.976;20.144;2023-06-22T04:58:13;100406.06;;;23.12;56.71
36664;BME280;53333;51.976;20.144;2023-06-22T05:00:45;100408.34;;;23.16;56.49
36664;BME280;53333;51.976;20.144;2023-06-22T05:03:22;100417.66;;;23.24;56.41
36664;BME280;53333;51.976;20.144;2023-06-22T05:05:59;100419.78;;;23.30;56.37
36664;BME280;53333;51.976;20.144;2023-06-22T05:08:31;100422.75;;;23.36;56.44
36664;BME280;53333;51.976;20.144;2023-06-22T05:11:04;100415.66;;;23.44;56.45
36664;BME280;53333;51.976;20.144;2023-06-22T05:13:37;100415.63;;;23.53;56.29
36664;BME280;53333;51.976;20.144;2023-06-22T05:16:09;100413.00;;;23.62;56.01
36664;BME280;53333;51.976;20.144;2023-06-22T05:18:42;100427.25;;;23.73;56.00
36664;BME280;53333;51.976;20.144;2023-06-22T05:21:17;100431.94;;;23.81;55.79
36664;BME280;53333;51.976;20.144;2023-06-22T05:23:50;100430.31;;;23.88;56.12
36664;BME280;53333;51.976;20.144;2023-06-22T05:26:23;100426.81;;;23.96;56.03
36664;BME280;53333;51.976;20.144;2023-06-22T05:28:56;100427.47;;;24.08;55.88
36664;BME280;53333;51.976;20.144;2023-06-22T05:31:29;100428.53;;;24.15;55.59
36664;BME280;53333;51.976;20.144;2023-06-22T05:34:02;100433.69;;;24.18;55.79
36664;BME280;53333;51.976;20.144;2023-06-22T05:36:36;100437.81;;;24.22;55.72
36664;BME280;53333;51.976;20.144;2023-06-22T05:39:12;100437.19;;;24.28;55.44
36664;BME280;53333;51.976;20.144;2023-06-22T05:41:46;100439.28;;;24.35;55.45
36664;BME280;53333;51.976;20.144;2023-06-22T05:44:18;100443.94;;;24.42;55.53
36664;BME280;53333;51.976;20.144;2023-06-22T05:46:51;100443.31;;;24.48;55.59
36664;BME280;53333;51.976;20.144;2023-06-22T05:49:24;100447.72;;;24.59;55.36
36664;BME280;53333;51.976;20.144;2023-06-22T05:52:02;100449.34;;;24.70;55.33
36664;BME280;53333;51.976;20.144;2023-06-22T05:54:35;100453.66;;;24.81;55.13
36664;BME280;53333;51.976;20.144;2023-06-22T05:57:08;100448.44;;;24.88;55.17
36664;BME280;53333;51.976;20.144;2023-06-22T05:59:40;100447.59;;;24.95;54.83
36664;BME280;53333;51.976;20.144;2023-06-22T06:02:13;100457.25;;;25.08;54.77
36664;BME280;53333;51.976;20.144;2023-06-22T06:04:48;100460.56;;;25.19;54.79
36664;BME280;53333;51.976;20.144;2023-06-22T06:07:23;100457.56;;;25.31;54.59
36664;BME280;53333;51.976;20.144;2023-06-22T06:09:57;100450.25;;;25.40;54.54
36664;BME280;53333;51.976;20.144;2023-06-22T06:12:30;100450.13;;;25.49;54.46
36664;BME280;53333;51.976;20.144;2023-06-22T06:15:03;100452.22;;;25.64;54.52
36664;BME280;53333;51.976;20.144;2023-06-22T06:17:37;100449.56;;;25.80;54.09
36664;BME280;53333;51.976;20.144;2023-06-22T06:20:18;100462.75;;;25.93;53.90
36664;BME280;53333;51.976;20.144;2023-06-22T06:22:52;100450.47;;;26.05;54.28
36664;BME280;53333;51.976;20.144;2023-06-22T06:25:25;100455.44;;;26.18;53.79
36664;BME280;53333;51.976;20.144;2023-06-22T06:27:58;100453.06;;;26.32;53.85
36664;BME280;53333;51.976;20.144;2023-06-22T06:30:31;100454.97;;;26.48;53.58
36664;BME280;53333;51.976;20.144;2023-06-22T06:33:04;100454.94;;;26.64;53.37
36664;BME280;53333;51.976;20.144;2023-06-22T06:35:40;100457.69;;;26.72;53.60
36664;BME280;53333;51.976;20.144;2023-06-22T06:38:14;100452.41;;;26.79;53.40
36664;BME280;53333;51.976;20.144;2023-06-22T06:40:47;100457.00;;;26.87;53.31
36664;BME280;53333;51.976;20.144;2023-06-22T06:43:20;100451.00;;;26.91;53.33
36664;BME280;53333;51.976;20.144;2023-06-22T06:45:54;100458.34;;;26.99;53.25
36664;BME280;53333;51.976;20.144;2023-06-22T06:48:26;100457.13;;;27.10;53.11
36664;BME280;53333;51.976;20.144;2023-06-22T06:50:59;100457.59;;;27.22;52.99
36664;BME280;53333;51.976;20.144;2023-06-22T06:53:33;100464.50;;;27.01;53.30
36664;BME280;53333;51.976;20.144;2023-06-22T06:56:06;100465.41;;;26.77;53.83
36664;BME280;53333;51.976;20.144;2023-06-22T06:58:42;100465.88;;;26.64;54.02
36664;BME280;53333;51.976;20.144;2023-06-22T07:01:17;100467.63;;;26.57;54.02
36664;BME280;53333;51.976;20.144;2023-06-22T07:03:53;100461.78;;;26.52;54.32
36664;BME280;53333;51.976;20.144;2023-06-22T07:06:26;100452.56;;;26.53;54.19
36664;BME280;53333;51.976;20.144;2023-06-22T07:09:04;100461.78;;;26.52;54.04
36664;BME280;53333;51.976;20.144;2023-06-22T07:11:37;100464.00;;;26.56;54.31
36664;BME280;53333;51.976;20.144;2023-06-22T07:14:10;100455.97;;;26.55;54.05
36664;BME280;53333;51.976;20.144;2023-06-22T07:16:43;100454.78;;;26.57;54.02
36664;BME280;53333;51.976;20.144;2023-06-22T07:19:15;100457.53;;;26.66;54.14
36664;BME280;53333;51.976;20.144;2023-06-22T07:21:48;100459.56;;;26.63;53.96
36664;BME280;53333;51.976;20.144;2023-06-22T07:24:22;100459.56;;;26.63;53.84
36664;BME280;53333;51.976;20.144;2023-06-22T07:26:55;100460.41;;;26.64;53.78
36664;BME280;53333;51.976;20.144;2023-06-22T07:29:30;100463.00;;;26.66;53.58
36664;BME280;53333;51.976;20.144;2023-06-22T07:32:04;100467.47;;;26.75;53.14
36664;BME280;53333;51.976;20.144;2023-06-22T07:34:36;100472.44;;;26.79;53.12
36664;BME280;53333;51.976;20.144;2023-06-22T07:37:09;100469.00;;;26.77;52.74
36664;BME280;53333;51.976;20.144;2023-06-22T07:39:43;100471.03;;;26.75;52.43
36664;BME280;53333;51.976;20.144;2023-06-22T07:42:16;100470.69;;;26.78;52.32
36664;BME280;53333;51.976;20.144;2023-06-22T07:44:50;100471.03;;;26.75;52.38
36664;BME280;53333;51.976;20.144;2023-06-22T07:47:23;100467.44;;;26.83;52.52
36664;BME280;53333;51.976;20.144;2023-06-22T07:49:59;100462.44;;;27.03;51.90
36664;BME280;53333;51.976;20.144;2023-06-22T07:52:33;100453.81;;;27.23;51.81
36664;BME280;53333;51.976;20.144;2023-06-22T07:55:08;100459.44;;;27.38;51.27
36664;BME280;53333;51.976;20.144;2023-06-22T07:57:40;100463.81;;;27.55;50.86
36664;BME280;53333;51.976;20.144;2023-06-22T08:00:13;100460.72;;;27.58;50.73
36664;BME280;53333;51.976;20.144;2023-06-22T08:02:47;100460.69;;;27.66;50.50
36664;BME280;53333;51.976;20.144;2023-06-22T08:05:20;100456.63;;;27.85;50.47
36664;BME280;53333;51.976;20.144;2023-06-22T08:07:53;100467.63;;;27.85;50.00
36664;BME280;53333;51.976;20.144;2023-06-22T08:10:27;100459.88;;;27.89;50.13
36664;BME280;53333;51.976;20.144;2023-06-22T08:13:00;100462.91;;;28.02;49.79
36664;BME280;53333;51.976;20.144;2023-06-22T08:15:33;100451.22;;;28.08;48.98
36664;BME280;53333;51.976;20.144;2023-06-22T08:18:06;100455.81;;;28.16;48.81
36664;BME280;53333;51.976;20.144;2023-06-22T08:20:39;100455.63;;;28.18;48.43
36664;BME280;53333;51.976;20.144;2023-06-22T08:23:11;100463.06;;;28.32;48.01
36664;BME280;53333;51.976;20.144;2023-06-22T08:25:45;100460.81;;;28.51;47.77
36664;BME280;53333;51.976;20.144;2023-06-22T08:28:19;100460.53;;;28.69;47.27
36664;BME280;53333;51.976;20.144;2023-06-22T08:30:52;100463.31;;;28.84;47.07
36664;BME280;53333;51.976;20.144;2023-06-22T08:33:26;100455.53;;;29.02;46.78
36664;BME280;53333;51.976;20.144;2023-06-22T08:36:02;100458.25;;;29.25;46.35
36664;BME280;53333;51.976;20.144;2023-06-22T08:38:37;100469.63;;;29.37;45.68
36664;BME280;53333;51.976;20.144;2023-06-22T08:41:11;100465.84;;;29.38;45.62
36664;BME280;53333;51.976;20.144;2023-06-22T08:43:44;100463.63;;;29.48;45.45
36664;BME280;53333;51.976;20.144;2023-06-22T08:46:16;100460.09;;;29.69;44.98
36664;BME280;53333;51.976;20.144;2023-06-22T08:48:53;100462.06;;;29.91;44.56
36664;BME280;53333;51.976;20.144;2023-06-22T08:51:26;100467.38;;;30.14;43.95
36664;BME280;53333;51.976;20.144;2023-06-22T08:53:58;100473.75;;;30.51;43.29
36664;BME280;53333;51.976;20.144;2023-06-22T08:56:32;100468.06;;;31.09;42.28
36664;BME280;53333;51.976;20.144;2023-06-22T08:59:05;100474.88;;;32.03;40.64
36664;BME280;53333;51.976;20.144;2023-06-22T09:01:39;100475.84;;;33.04;38.96
36664;BME280;53333;51.976;20.144;2023-06-22T09:04:12;100475.84;;;33.89;37.72
36664;BME280;53333;51.976;20.144;2023-06-22T09:06:45;100485.03;;;34.53;37.27
36664;BME280;53333;51.976;20.144;2023-06-22T09:09:17;100485.13;;;35.16;36.53
36664;BME280;53333;51.976;20.144;2023-06-22T09:11:52;100485.38;;;35.70;36.00
36664;BME280;53333;51.976;20.144;2023-06-22T09:14:25;100481.72;;;36.06;35.48
36664;BME280;53333;51.976;20.144;2023-06-22T09:16:58;100481.09;;;36.34;35.43
36664;BME280;53333;51.976;20.144;2023-06-22T09:19:31;100482.47;;;36.55;34.81
36664;BME280;53333;51.976;20.144;2023-06-22T09:22:04;100477.09;;;36.72;35.14
36664;BME280;53333;51.976;20.144;2023-06-22T09:24:38;100475.03;;;36.92;34.70
36664;BME280;53333;51.976;20.144;2023-06-22T09:27:12;100475.91;;;37.04;34.92
36664;BME280;53333;51.976;20.144;2023-06-22T09:29:45;100482.28;;;37.04;34.34
36664;BME280;53333;51.976;20.144;2023-06-22T09:32:18;100481.69;;;37.02;34.02
36664;BME280;53333;51.976;20.144;2023-06-22T09:34:51;100477.09;;;37.08;34.11
36664;BME280;53333;51.976;20.144;2023-06-22T09:37:24;100478.41;;;37.17;34.08
36664;BME280;53333;51.976;20.144;2023-06-22T09:39:57;100481.00;;;37.31;33.48
36664;BME280;53333;51.976;20.144;2023-06-22T09:42:31;100481.81;;;37.31;33.76
36664;BME280;53333;51.976;20.144;2023-06-22T09:45:04;100479.78;;;37.26;33.72
36664;BME280;53333;51.976;20.144;2023-06-22T09:47:37;100471.06;;;36.99;33.71
36664;BME280;53333;51.976;20.144;2023-06-22T09:53:11;100473.16;;;36.08;34.84
36664;BME280;53333;51.976;20.144;2023-06-22T09:55:41;100464.19;;;35.57;35.28
36664;BME280;53333;51.976;20.144;2023-06-22T10:50:54;100440.97;;;31.61;36.01
36664;BME280;53333;51.976;20.144;2023-06-22T10:53:27;100436.09;;;31.56;35.81
36664;BME280;53333;51.976;20.144;2023-06-22T10:56:00;100436.28;;;31.55;35.48
36664;BME280;53333;51.976;20.144;2023-06-22T10:58:32;100434.81;;;31.59;35.57
36664;BME280;53333;51.976;20.144;2023-06-22T11:01:05;100433.97;;;31.58;35.56
36664;BME280;53333;51.976;20.144;2023-06-22T11:03:43;100429.28;;;31.59;35.50
36664;BME280;53333;51.976;20.144;2023-06-22T11:06:18;100429.75;;;31.69;35.47
36664;BME280;53333;51.976;20.144;2023-06-22T11:08:51;100423.38;;;31.68;35.27
36664;BME280;53333;51.976;20.144;2023-06-22T11:11:42;100431.41;;;31.57;35.41
36664;BME280;53333;51.976;20.144;2023-06-22T11:14:15;100435.22;;;31.56;35.45
36664;BME280;53333;51.976;20.144;2023-06-22T11:16:48;100436.72;;;31.58;35.60
36664;BME280;53333;51.976;20.144;2023-06-22T11:19:21;100438.88;;;31.63;35.27
36664;BME280;53333;51.976;20.144;2023-06-22T11:21:55;100427.63;;;31.71;35.40
36664;BME280;53333;51.976;20.144;2023-06-22T11:24:28;100428.28;;;31.80;35.25
36664;BME280;53333;51.976;20.144;2023-06-22T11:27:00;100430.63;;;31.76;35.36
36664;BME280;53333;51.976;20.144;2023-06-22T11:29:33;100433.38;;;31.76;35.27
36664;BME280;53333;51.976;20.144;2023-06-22T11:32:09;100437.44;;;31.74;35.19
36664;BME280;53333;51.976;20.144;2023-06-22T11:34:45;100426.81;;;31.71;35.18
36664;BME280;53333;51.976;20.144;2023-06-22T11:37:19;100419.78;;;31.68;35.13
36664;BME280;53333;51.976;20.144;2023-06-22T11:39:52;100414.25;;;31.75;35.11
36664;BME280;53333;51.976;20.144;2023-06-22T11:42:37;100405.78;;;31.76;34.88
36664;BME280;53333;51.976;20.144;2023-06-22T11:45:10;100404.06;;;31.68;34.97
36664;BME280;53333;51.976;20.144;2023-06-22T11:47:42;100394.50;;;31.58;34.94
36664;BME280;53333;51.976;20.144;2023-06-22T11:50:15;100405.94;;;31.55;34.98
36664;BME280;53333;51.976;20.144;2023-06-22T11:52:49;100399.09;;;31.50;35.08
36664;BME280;53333;51.976;20.144;2023-06-22T11:55:24;100398.66;;;31.47;35.11
36664;BME280;53333;51.976;20.144;2023-06-22T11:57:57;100392.88;;;31.35;35.07
36664;BME280;53333;51.976;20.144;2023-06-22T12:00:33;100388.81;;;31.24;34.89
36664;BME280;53333;51.976;20.144;2023-06-22T12:03:21;100386.41;;;31.14;35.00
36664;BME280;53333;51.976;20.144;2023-06-22T12:05:54;100391.31;;;31.19;34.98
36664;BME280;53333;51.976;20.144;2023-06-22T12:08:28;100394.94;;;31.20;34.97
36664;BME280;53333;51.976;20.144;2023-06-22T12:11:01;100383.94;;;31.26;34.83
36664;BME280;53333;51.976;20.144;2023-06-22T12:13:34;100382.44;;;31.30;34.61
36664;BME280;53333;51.976;20.144;2023-06-22T12:16:06;100387.53;;;31.27;34.76
36664;BME280;53333;51.976;20.144;2023-06-22T12:18:39;100396.63;;;31.21;34.58
36664;BME280;53333;51.976;20.144;2023-06-22T12:21:12;100394.03;;;31.12;34.77
36664;BME280;53333;51.976;20.144;2023-06-22T12:23:46;100395.94;;;31.12;34.90
36664;BME280;53333;51.976;20.144;2023-06-22T12:26:33;100390.84;;;31.09;34.65
36664;BME280;53333;51.976;20.144;2023-06-22T12:29:05;100393.78;;;31.01;34.85
36664;BME280;53333;51.976;20.144;2023-06-22T12:31:38;100390.34;;;30.99;34.72
36664;BME280;53333;51.976;20.144;2023-06-22T12:34:11;100395.78;;;30.92;34.79
36664;BME280;53333;51.976;20.144;2023-06-22T12:36:44;100400.44;;;30.85;34.35
36664;BME280;53333;51.976;20.144;2023-06-22T12:39:18;100403.59;;;30.82;34.44
36664;BME280;53333;51.976;20.144;2023-06-22T12:41:52;100401.28;;;30.85;34.41
36664;BME280;53333;51.976;20.144;2023-06-22T12:44:25;100400.03;;;30.88;34.05
36664;BME280;53333;51.976;20.144;2023-06-22T12:46:58;100405.78;;;30.93;34.04
36664;BME280;53333;51.976;20.144;2023-06-22T12:49:31;100405.13;;;30.91;33.85
36664;BME280;53333;51.976;20.144;2023-06-22T12:52:08;100396.00;;;30.90;33.69
36664;BME280;53333;51.976;20.144;2023-06-22T12:54:41;100401.47;;;30.84;33.59
36664;BME280;53333;51.976;20.144;2023-06-22T12:57:27;100399.56;;;30.84;33.39
36664;BME280;53333;51.976;20.144;2023-06-22T12:59:59;100387.28;;;30.87;33.49
36664;BME280;53333;51.976;20.144;2023-06-22T13:02:32;100378.78;;;30.82;33.27
36664;BME280;53333;51.976;20.144;2023-06-22T13:05:05;100377.22;;;30.72;33.42
36664;BME280;53333;51.976;20.144;2023-06-22T13:07:38;100371.53;;;30.74;33.50
36664;BME280;53333;51.976;20.144;2023-06-22T13:10:11;100364.38;;;30.79;33.45
36664;BME280;53333;51.976;20.144;2023-06-22T13:12:45;100369.88;;;30.79;33.45
36664;BME280;53333;51.976;20.144;2023-06-22T13:15:17;100376.25;;;30.87;33.47
36664;BME280;53333;51.976;20.144;2023-06-22T13:17:50;100375.72;;;30.98;33.42
36664;BME280;53333;51.976;20.144;2023-06-22T13:20:23;100368.09;;;31.00;33.31
36664;BME280;53333;51.976;20.144;2023-06-22T13:22:56;100366.41;;;30.99;33.36
36664;BME280;53333;51.976;20.144;2023-06-22T13:25:29;100363.78;;;30.91;33.42
36664;BME280;53333;51.976;20.144;2023-06-22T13:28:03;100363.09;;;30.82;33.68
36664;BME280;53333;51.976;20.144;2023-06-22T13:30:40;100365.00;;;30.82;33.70
36664;BME280;53333;51.976;20.144;2023-06-22T13:33:13;100371.16;;;30.84;33.67
36664;BME280;53333;51.976;20.144;2023-06-22T13:35:46;100371.53;;;30.74;33.70
36664;BME280;53333;51.976;20.144;2023-06-22T13:38:19;100369.38;;;30.69;33.70
36664;BME280;53333;51.976;20.144;2023-06-22T13:40:51;100364.50;;;30.71;33.80
36664;BME280;53333;51.976;20.144;2023-06-22T13:43:28;100365.59;;;30.77;33.68
36664;BME280;53333;51.976;20.144;2023-06-22T13:46:00;100362.66;;;30.78;33.66
36664;BME280;53333;51.976;20.144;2023-06-22T13:48:33;100366.84;;;30.74;33.71
36664;BME280;53333;51.976;20.144;2023-06-22T13:51:06;100364.09;;;30.74;33.93
36664;BME280;53333;51.976;20.144;2023-06-22T13:53:39;100361.94;;;30.70;33.64
36664;BME280;53333;51.976;20.144;2023-06-22T13:56:11;100359.56;;;30.60;33.86
36664;BME280;53333;51.976;20.144;2023-06-22T13:58:45;100356.97;;;30.52;33.93
36664;BME280;53333;51.976;20.144;2023-06-22T14:01:18;100365.81;;;30.47;33.84
36664;BME280;53333;51.976;20.144;2023-06-22T14:03:51;100368.38;;;30.49;33.99
36664;BME280;53333;51.976;20.144;2023-06-22T14:06:23;100359.06;;;30.50;33.68
36664;BME280;53333;51.976;20.144;2023-06-22T14:08:56;100360.81;;;30.57;33.79